createdAt,value
2022-11-29T00:01:07.713Z,19.10
2022-11-29T00:03:34.644Z,42.35
2022-11-29T00:06:10.031Z,20.35
2022-11-29T00:08:37.075Z,21.17
2022-11-29T00:11:05.523Z,28.13
2022-11-29T00:13:32.126Z,31.55
2022-11-29T00:16:06.704Z,22.70
2022-11-29T00:18:33.776Z,25.70
2022-11-29T00:21:00.902Z,26.65
2022-11-29T00:23:27.408Z,33.72
2022-11-29T00:25:53.957Z,35.05
2022-11-29T00:28:20.419Z,39.05
2022-11-29T00:30:47.346Z,32.67
2022-11-29T00:33:14.016Z,29.63
2022-11-29T00:35:40.459Z,36.47
2022-11-29T00:38:07.041Z,34.25
2022-11-29T00:40:34.155Z,33.55
2022-11-29T00:43:01.788Z,38.53
2022-11-29T00:45:28.299Z,43.95
2022-11-29T00:47:54.850Z,40.72
2022-11-29T00:50:21.412Z,35.97
2022-11-29T00:52:47.919Z,33.45
2022-11-29T00:55:14.672Z,42.30
2022-11-29T00:57:41.526Z,45.13
2022-11-29T01:00:10.776Z,40.63
2022-11-29T01:02:37.489Z,42.00
2022-11-29T01:05:04.255Z,36.85
2022-11-29T01:07:30.900Z,34.45
2022-11-29T01:09:57.397Z,32.22
2022-11-29T01:12:23.899Z,43.42
2022-11-29T01:14:50.348Z,49.22
2022-11-29T01:17:16.849Z,53.58
2022-11-29T01:19:49.292Z,36.00
2022-11-29T01:22:17.283Z,40.67
2022-11-29T01:24:44.035Z,49.05
2022-11-29T01:27:10.839Z,41.83
2022-11-29T01:29:37.387Z,34.97
2022-11-29T01:32:04.136Z,26.98
2022-11-29T01:34:30.692Z,56.05
2022-11-29T01:36:57.508Z,42.83
2022-11-29T01:39:24.066Z,32.45
2022-11-29T01:41:50.580Z,29.77
2022-11-29T01:44:17.021Z,37.33
2022-11-29T01:46:46.026Z,53.10
2022-11-29T01:49:17.777Z,36.97
2022-11-29T01:51:50.398Z,38.78
2022-11-29T01:54:18.074Z,38.45
2022-11-29T01:56:47.290Z,39.63
2022-11-29T01:59:18.457Z,37.22
2022-11-29T02:01:45.346Z,35.53
2022-11-29T02:04:12.235Z,34.97
2022-11-29T02:06:39.712Z,32.42
2022-11-29T02:09:19.625Z,67.43
2022-11-29T02:12:03.379Z,41.08
2022-11-29T02:15:06.780Z,39.35
2022-11-29T02:17:58.967Z,42.25
2022-11-29T02:21:03.292Z,53.08
2022-11-29T02:23:39.421Z,84.25
2022-11-29T02:26:36.896Z,71.50
2022-11-29T02:29:10.059Z,79.63
2022-11-29T02:31:57.502Z,50.45
2022-11-29T02:34:51.973Z,29.75
2022-11-29T02:37:28.645Z,43.65
2022-11-29T02:40:30.656Z,34.15
2022-11-29T02:43:17.391Z,32.47
2022-11-29T02:46:14.643Z,25.30
2022-11-29T02:49:02.588Z,38.47
2022-11-29T02:51:46.532Z,29.15
2022-11-29T02:54:23.858Z,32.13
2022-11-29T02:57:02.001Z,26.00
2022-11-29T03:00:01.011Z,25.52
2022-11-29T03:02:48.257Z,33.45
2022-11-29T03:05:20.642Z,25.27
2022-11-29T03:07:53.351Z,31.13
2022-11-29T03:10:23.121Z,77.60
2022-11-29T03:12:53.322Z,90.55
2022-11-29T03:15:19.891Z,29.38
2022-11-29T03:18:28.061Z,29.30
2022-11-29T03:21:09.981Z,26.10
2022-11-29T03:23:47.279Z,27.63
2022-11-29T03:26:32.291Z,37.42
2022-11-29T03:29:35.935Z,31.88
2022-11-29T03:32:06.852Z,25.63
2022-11-29T03:34:57.359Z,25.63
2022-11-29T03:37:32.866Z,26.15
2022-11-29T03:40:31.647Z,26.50
2022-11-29T03:43:14.189Z,26.55
2022-11-29T03:46:07.376Z,24.10
2022-11-29T03:48:48.256Z,28.95
2022-11-29T03:51:54.735Z,24.75
2022-11-29T03:55:02.721Z,130.52
2022-11-29T03:57:39.327Z,45.95
2022-11-29T04:00:09.328Z,27.75
2022-11-29T04:02:53.886Z,77.28
2022-11-29T04:05:38.753Z,209.52
2022-11-29T04:08:17.519Z,33.15
2022-11-29T04:11:05.559Z,80.90
2022-11-29T04:14:06.523Z,36.40
2022-11-29T04:16:51.792Z,33.30
2022-11-29T04:19:45.863Z,51.28
2022-11-29T04:22:24.560Z,38.15
2022-11-29T04:25:32.124Z,56.00
2022-11-29T04:28:41.186Z,70.30
2022-11-29T04:31:29.009Z,44.80
2022-11-29T04:34:25.731Z,31.27
2022-11-29T04:37:02.494Z,36.03
2022-11-29T04:39:50.363Z,55.80
2022-11-29T04:42:16.909Z,51.15
2022-11-29T04:45:08.113Z,38.70
2022-11-29T04:47:43.702Z,53.85
2022-11-29T04:50:42.047Z,44.95
2022-11-29T04:53:31.982Z,52.85
2022-11-29T04:56:15.166Z,55.40
2022-11-29T04:58:51.962Z,62.50
2022-11-29T05:01:46.357Z,75.53
2022-11-29T05:04:46.743Z,63.03
2022-11-29T05:07:24.869Z,80.72
2022-11-29T05:09:59.574Z,52.42
2022-11-29T05:12:48.075Z,66.85
2022-11-29T05:15:35.275Z,61.53
2022-11-29T05:18:34.245Z,103.45
2022-11-29T05:21:13.905Z,118.72
2022-11-29T05:23:46.308Z,46.15
2022-11-29T05:26:22.752Z,71.60
2022-11-29T05:29:10.148Z,73.07
2022-11-29T05:32:09.991Z,68.30
2022-11-29T05:35:03.056Z,75.53
2022-11-29T05:37:44.163Z,78.88
2022-11-29T05:40:13.700Z,47.95
2022-11-29T05:43:17.595Z,85.20
2022-11-29T05:45:57.843Z,101.85
2022-11-29T05:48:33.612Z,73.93
2022-11-29T05:51:27.468Z,82.10
2022-11-29T05:54:06.095Z,105.13
2022-11-29T05:56:53.959Z,50.38
2022-11-29T05:59:27.738Z,62.42
2022-11-29T06:02:03.218Z,209.23
2022-11-29T06:04:57.205Z,141.00
2022-11-29T06:07:38.714Z,93.75
2022-11-29T06:10:29.303Z,115.35
2022-11-29T06:13:01.867Z,78.80
2022-11-29T06:15:57.365Z,64.65
2022-11-29T06:18:33.435Z,88.00
2022-11-29T06:21:23.140Z,86.22
2022-11-29T06:23:49.793Z,81.95
2022-11-29T06:26:24.254Z,121.55
2022-11-29T06:29:12.620Z,100.68
2022-11-29T06:31:46.349Z,75.18
2022-11-29T06:34:55.489Z,86.32
2022-11-29T06:37:41.935Z,88.22
2022-11-29T06:40:12.095Z,96.15
2022-11-29T06:42:38.555Z,108.95
2022-11-29T06:45:05.810Z,88.10
2022-11-29T06:47:46.534Z,96.70
2022-11-29T06:50:34.728Z,83.40
2022-11-29T06:53:39.998Z,80.07
2022-11-29T06:56:26.532Z,71.47
2022-11-29T06:59:06.791Z,75.85
2022-11-29T07:01:39.815Z,68.43
2022-11-29T07:04:33.746Z,87.18
2022-11-29T07:07:00.500Z,96.32
2022-11-29T07:09:33.581Z,96.10
2022-11-29T07:12:00.712Z,112.68
2022-11-29T07:14:27.536Z,92.93
2022-11-29T07:17:20.264Z,102.75
2022-11-29T07:20:09.540Z,86.75
2022-11-29T07:22:49.549Z,89.68
2022-11-29T07:25:31.306Z,139.80
2022-11-29T07:28:19.951Z,110.63
2022-11-29T07:31:08.519Z,77.30
2022-11-29T07:33:58.762Z,107.50
2022-11-29T07:36:28.234Z,100.93
2022-11-29T07:39:07.871Z,98.32
2022-11-29T07:41:44.302Z,109.82
2022-11-29T07:44:35.464Z,83.78
2022-11-29T07:47:02.121Z,103.75
2022-11-29T07:49:32.519Z,83.57
2022-11-29T07:51:59.151Z,92.50
2022-11-29T07:54:25.699Z,82.93
2022-11-29T07:56:52.212Z,88.38
2022-11-29T07:59:18.808Z,106.30
2022-11-29T08:01:46.425Z,75.53
2022-11-29T08:04:13.893Z,113.13
2022-11-29T08:06:40.395Z,95.75
2022-11-29T08:09:07.628Z,75.97
2022-11-29T08:11:34.237Z,84.63
2022-11-29T08:14:02.184Z,76.00
2022-11-29T08:16:29.391Z,79.18
2022-11-29T08:18:55.989Z,104.35
2022-11-29T08:21:22.712Z,87.75
2022-11-29T08:23:50.781Z,103.10
2022-11-29T08:26:18.842Z,80.82
2022-11-29T08:28:45.732Z,76.05
2022-11-29T08:31:13.710Z,74.50
2022-11-29T08:33:43.116Z,83.35
2022-11-29T08:36:20.126Z,120.15
2022-11-29T08:38:47.401Z,82.05
2022-11-29T08:41:16.214Z,90.40
2022-11-29T08:43:43.677Z,90.07
2022-11-29T08:46:16.712Z,76.40
2022-11-29T08:48:53.826Z,87.63
2022-11-29T08:51:21.575Z,124.85
2022-11-29T08:53:51.559Z,125.55
2022-11-29T08:59:06.080Z,101.03
2022-11-29T09:01:32.802Z,74.80
2022-11-29T09:03:59.421Z,102.43
2022-11-29T09:06:28.017Z,108.00
2022-11-29T09:08:56.454Z,78.82
2022-11-29T09:11:24.939Z,77.57
2022-11-29T09:13:55.036Z,98.10
2022-11-29T09:16:24.074Z,78.63
2022-11-29T09:18:52.494Z,85.78
2022-11-29T09:21:19.070Z,70.95
2022-11-29T09:23:46.172Z,99.78
2022-11-29T09:26:18.813Z,76.55
2022-11-29T09:28:46.787Z,72.82
2022-11-29T09:31:15.491Z,64.90
2022-11-29T09:33:42.377Z,80.25
2022-11-29T09:36:11.462Z,71.72
2022-11-29T09:38:38.585Z,60.60
2022-11-29T09:41:23.963Z,63.42
2022-11-29T09:44:02.424Z,74.18
2022-11-29T09:46:45.916Z,60.22
2022-11-29T09:49:55.237Z,66.65
2022-11-29T09:52:43.958Z,61.88
2022-11-29T09:55:34.292Z,69.00
2022-11-29T09:58:03.788Z,76.60
2022-11-29T10:00:35.320Z,97.32
2022-11-29T10:03:12.607Z,70.93
2022-11-29T10:05:46.975Z,70.53
2022-11-29T10:08:26.623Z,77.68
2022-11-29T10:11:33.152Z,69.93
2022-11-29T10:14:22.522Z,55.72
2022-11-29T10:17:08.281Z,59.33
2022-11-29T10:19:47.588Z,43.65
2022-11-29T10:22:18.108Z,53.35
2022-11-29T10:24:49.382Z,49.35
2022-11-29T10:27:22.845Z,53.80
2022-11-29T10:29:51.295Z,51.25
2022-11-29T10:32:21.157Z,54.00
2022-11-29T10:34:49.412Z,53.42
2022-11-29T10:37:20.414Z,52.08
2022-11-29T10:39:58.640Z,52.65
2022-11-29T10:42:46.495Z,52.38
2022-11-29T10:45:24.959Z,41.50
2022-11-29T10:47:53.688Z,52.22
2022-11-29T10:50:25.892Z,55.42
2022-11-29T10:52:59.916Z,47.50
2022-11-29T10:55:31.020Z,47.45
2022-11-29T10:58:15.618Z,52.75
2022-11-29T11:00:50.149Z,43.25
2022-11-29T11:03:42.682Z,47.83
2022-11-29T11:06:17.188Z,54.55
2022-11-29T11:08:48.543Z,48.67
2022-11-29T11:11:24.866Z,61.05
2022-11-29T11:14:06.005Z,43.60
2022-11-29T11:16:37.351Z,70.05
2022-11-29T11:19:25.614Z,59.20
2022-11-29T11:21:52.268Z,85.55
2022-11-29T11:24:28.837Z,46.85
2022-11-29T11:26:56.360Z,48.83
2022-11-29T11:29:34.128Z,58.97
2022-11-29T11:32:00.925Z,45.40
2022-11-29T11:34:27.431Z,48.38
2022-11-29T11:37:14.758Z,56.20
2022-11-29T11:39:42.621Z,64.13
2022-11-29T11:42:33.897Z,46.08
2022-11-29T11:45:02.090Z,49.15
2022-11-29T11:47:32.737Z,45.22
2022-11-29T11:50:02.370Z,45.50
2022-11-29T11:52:52.371Z,37.08
2022-11-29T11:55:21.908Z,55.78
2022-11-29T11:58:09.887Z,38.65
2022-11-29T12:01:05.476Z,37.05
2022-11-29T12:03:43.846Z,55.05
2022-11-29T12:06:31.754Z,47.40
2022-11-29T12:09:24.867Z,54.95
2022-11-29T12:12:01.856Z,46.58
2022-11-29T12:14:40.197Z,39.55
2022-11-29T12:17:22.788Z,61.13
2022-11-29T12:20:01.391Z,40.92
2022-11-29T12:22:37.405Z,40.70
2022-11-29T12:25:10.524Z,40.00
2022-11-29T12:27:37.087Z,42.35
2022-11-29T12:30:12.117Z,35.17
2022-11-29T12:33:06.171Z,44.20
2022-11-29T12:36:20.664Z,39.47
2022-11-29T12:38:59.320Z,38.90
2022-11-29T12:41:40.889Z,41.53
2022-11-29T12:44:19.291Z,36.95
2022-11-29T12:47:13.252Z,39.90
2022-11-29T12:50:28.661Z,51.47
2022-11-29T12:53:27.078Z,45.38
2022-11-29T12:56:15.695Z,36.53
2022-11-29T12:58:55.776Z,46.05
2022-11-29T13:01:31.221Z,38.75
2022-11-29T13:06:43.400Z,34.13
2022-11-29T13:09:43.890Z,44.13
2022-11-29T13:12:20.586Z,48.97
2022-11-29T13:14:59.846Z,43.75
2022-11-29T13:17:45.287Z,40.72
2022-11-29T13:20:50.285Z,47.83
2022-11-29T13:23:39.022Z,48.30
2022-11-29T13:26:12.575Z,47.30
2022-11-29T13:28:42.105Z,52.38
2022-11-29T13:31:15.500Z,46.88
2022-11-29T13:34:03.201Z,58.15
2022-11-29T13:36:44.880Z,48.72
2022-11-29T13:39:33.205Z,47.63
2022-11-29T13:42:21.957Z,50.70
2022-11-29T13:44:54.862Z,48.72
2022-11-29T13:47:22.427Z,52.40
2022-11-29T13:50:44.929Z,49.83
2022-11-29T13:53:16.743Z,47.88
2022-11-29T13:56:02.554Z,50.45
2022-11-29T14:01:05.285Z,44.95
2022-11-29T14:03:38.672Z,51.50
2022-11-29T14:06:21.127Z,48.63
2022-11-29T14:09:19.819Z,56.88
2022-11-29T14:11:43.306Z,60.03
2022-11-29T14:14:25.076Z,54.60
2022-11-29T14:17:03.079Z,52.33
2022-11-29T14:19:35.532Z,52.78
2022-11-29T14:22:02.037Z,45.92
2022-11-29T14:24:37.891Z,50.80
2022-11-29T14:27:07.719Z,57.35
2022-11-29T14:29:49.789Z,49.53
2022-11-29T14:32:49.442Z,55.03
2022-11-29T14:35:26.725Z,49.45
2022-11-29T14:38:11.535Z,49.80
2022-11-29T14:40:41.260Z,64.63
2022-11-29T14:43:26.441Z,50.83
2022-11-29T14:46:15.689Z,52.58
2022-11-29T14:48:47.514Z,49.28
2022-11-29T14:51:17.313Z,57.33
2022-11-29T14:53:47.040Z,47.40
2022-11-29T14:56:28.752Z,53.63
2022-11-29T14:59:32.915Z,46.65
2022-11-29T15:02:07.113Z,54.25
2022-11-29T15:04:36.395Z,57.08
2022-11-29T15:07:04.554Z,45.00
2022-11-29T15:09:33.375Z,45.72
2022-11-29T15:12:04.648Z,51.13
2022-11-29T15:14:52.307Z,47.92
2022-11-29T15:17:37.727Z,53.75
2022-11-29T15:20:32.367Z,45.67
2022-11-29T15:23:01.714Z,42.53
2022-11-29T15:25:31.748Z,40.08
2022-11-29T15:28:00.919Z,51.53
2022-11-29T15:30:27.593Z,48.38
2022-11-29T15:32:54.340Z,51.45
2022-11-29T15:35:21.132Z,48.50
2022-11-29T15:37:49.739Z,52.58
2022-11-29T15:40:19.807Z,41.33
2022-11-29T15:43:01.875Z,43.28
2022-11-29T15:45:30.540Z,40.72
2022-11-29T15:48:21.572Z,41.67
2022-11-29T15:51:21.251Z,46.35
2022-11-29T15:54:11.290Z,37.65
2022-11-29T15:56:54.515Z,53.33
2022-11-29T15:59:30.105Z,41.90
2022-11-29T16:02:00.410Z,36.67
2022-11-29T16:04:27.244Z,39.80
2022-11-29T16:06:55.344Z,30.50
2022-11-29T16:09:36.457Z,38.10
2022-11-29T16:12:03.524Z,38.38
2022-11-29T16:14:30.101Z,42.42
2022-11-29T16:17:00.535Z,43.80
2022-11-29T16:19:37.898Z,40.63
2022-11-29T16:22:10.529Z,39.70
2022-11-29T16:24:48.041Z,41.28
2022-11-29T16:27:14.984Z,39.58
2022-11-29T16:29:45.225Z,45.80
2022-11-29T16:32:29.966Z,34.92
2022-11-29T16:35:03.993Z,36.22
2022-11-29T16:37:38.377Z,42.78
2022-11-29T16:40:05.692Z,57.17
2022-11-29T16:42:33.660Z,49.22
2022-11-29T16:45:05.506Z,69.72
2022-11-29T16:47:47.500Z,56.95
2022-11-29T16:50:18.220Z,63.17
2022-11-29T16:52:45.642Z,69.07
2022-11-29T16:55:12.512Z,57.38
2022-11-29T16:57:39.836Z,58.92
2022-11-29T17:00:11.224Z,76.65
2022-11-29T17:02:37.872Z,66.05
2022-11-29T17:05:04.715Z,84.20
2022-11-29T17:07:35.276Z,71.28
2022-11-29T17:10:02.267Z,68.00
2022-11-29T17:12:28.756Z,81.60
2022-11-29T17:14:55.294Z,79.18
2022-11-29T17:17:21.839Z,79.45
2022-11-29T17:19:48.353Z,87.25
2022-11-29T17:22:15.111Z,88.95
2022-11-29T17:24:47.441Z,68.20
2022-11-29T17:27:14.490Z,75.40
2022-11-29T17:29:41.001Z,74.22
2022-11-29T17:32:07.596Z,107.57
2022-11-29T17:34:35.245Z,82.68
2022-11-29T17:37:05.258Z,67.03
2022-11-29T17:39:32.981Z,81.82
2022-11-29T17:41:59.598Z,77.88
2022-11-29T17:44:26.248Z,74.60
2022-11-29T17:46:52.783Z,68.90
2022-11-29T17:49:19.449Z,75.55
2022-11-29T17:51:53.939Z,64.20
2022-11-29T17:54:21.604Z,66.70
2022-11-29T17:56:48.130Z,62.40
2022-11-29T17:59:14.720Z,60.78
2022-11-29T18:01:41.652Z,60.78
2022-11-29T18:04:08.608Z,56.60
2022-11-29T18:06:40.197Z,62.53
2022-11-29T18:09:08.863Z,60.95
2022-11-29T18:11:46.883Z,71.30
2022-11-29T18:14:18.072Z,60.78
2022-11-29T18:16:45.422Z,60.95
2022-11-29T18:19:14.526Z,54.75
2022-11-29T18:21:41.253Z,66.68
2022-11-29T18:24:08.415Z,56.20
2022-11-29T18:26:36.252Z,60.30
2022-11-29T18:29:03.865Z,59.85
2022-11-29T18:31:32.940Z,60.05
2022-11-29T18:34:01.257Z,67.95
2022-11-29T18:36:29.205Z,60.90
2022-11-29T18:38:59.036Z,64.88
2022-11-29T18:41:28.192Z,71.20
2022-11-29T18:43:59.100Z,60.75
2022-11-29T18:46:32.136Z,63.47
2022-11-29T18:49:01.011Z,67.13
2022-11-29T18:51:29.280Z,66.80
2022-11-29T18:53:56.426Z,62.25
2022-11-29T18:56:25.663Z,69.93
2022-11-29T18:59:04.656Z,72.03
2022-11-29T19:01:34.331Z,73.63
2022-11-29T19:04:01.717Z,73.47
2022-11-29T19:06:39.198Z,79.28
2022-11-29T19:09:09.917Z,72.03
2022-11-29T19:11:36.577Z,94.85
2022-11-29T19:14:05.953Z,88.05
2022-11-29T19:16:34.574Z,87.22
2022-11-29T19:19:01.759Z,92.03
2022-11-29T19:21:31.838Z,80.57
2022-11-29T19:24:03.321Z,92.50
2022-11-29T19:26:32.424Z,74.65
2022-11-29T19:29:00.782Z,90.60
2022-11-29T19:31:27.904Z,75.20
2022-11-29T19:33:55.399Z,91.38
2022-11-29T19:36:27.383Z,96.57
2022-11-29T19:38:54.696Z,83.55
2022-11-29T19:41:24.463Z,93.82
2022-11-29T19:43:51.565Z,78.53
2022-11-29T19:46:19.865Z,83.25
2022-11-29T19:48:47.133Z,93.80
2022-11-29T19:51:17.402Z,102.50
2022-11-29T19:53:45.524Z,87.47
2022-11-29T19:56:16.795Z,86.22
2022-11-29T19:58:44.057Z,119.20
2022-11-29T20:01:22.951Z,87.88
2022-11-29T20:03:50.188Z,82.35
2022-11-29T20:06:17.613Z,86.88
2022-11-29T20:08:45.013Z,101.40
2022-11-29T20:11:20.159Z,87.63
2022-11-29T20:13:52.062Z,83.60
2022-11-29T20:16:19.251Z,92.80
2022-11-29T20:18:50.988Z,86.60
2022-11-29T20:21:20.410Z,97.43
2022-11-29T20:23:47.299Z,97.93
2022-11-29T20:26:17.680Z,91.03
2022-11-29T20:28:45.031Z,96.55
2022-11-29T20:31:15.802Z,106.97
2022-11-29T20:33:44.404Z,96.18
2022-11-29T20:36:48.626Z,90.47
2022-11-29T20:39:41.106Z,96.82
2022-11-29T20:42:49.900Z,98.95
2022-11-29T20:45:16.959Z,94.55
2022-11-29T20:47:46.483Z,87.50
2022-11-29T20:50:25.011Z,100.82
2022-11-29T20:53:10.227Z,108.25
2022-11-29T20:55:42.439Z,90.15
2022-11-29T20:58:13.057Z,83.75
2022-11-29T21:00:39.534Z,113.45
2022-11-29T21:03:05.989Z,96.75
2022-11-29T21:05:36.679Z,131.10
2022-11-29T21:08:03.226Z,118.07
2022-11-29T21:10:29.764Z,89.80
2022-11-29T21:12:56.635Z,124.35
2022-11-29T21:15:23.441Z,144.82
2022-11-29T21:17:50.394Z,118.07
2022-11-29T21:20:21.021Z,100.18
2022-11-29T21:23:05.688Z,88.95
2022-11-29T21:25:47.433Z,99.28
2022-11-29T21:28:15.883Z,100.40
2022-11-29T21:30:43.944Z,93.45
2022-11-29T21:33:14.899Z,85.00
2022-11-29T21:35:41.476Z,67.55
2022-11-29T21:38:14.568Z,73.78
2022-11-29T21:40:41.220Z,73.28
2022-11-29T21:43:07.687Z,88.78
2022-11-29T21:45:34.111Z,84.40
2022-11-29T21:48:01.048Z,90.22
2022-11-29T21:50:27.688Z,87.65
2022-11-29T21:52:54.142Z,91.63
2022-11-29T21:55:20.632Z,85.50
2022-11-29T21:57:47.152Z,88.35
2022-11-29T22:00:14.262Z,92.38
2022-11-29T22:02:40.984Z,89.20
2022-11-29T22:05:09.600Z,84.30
2022-11-29T22:07:36.209Z,101.07
2022-11-29T22:10:10.008Z,83.95
2022-11-29T22:12:42.877Z,77.13
2022-11-29T22:15:19.030Z,72.63
2022-11-29T22:17:50.059Z,78.40
2022-11-29T22:20:16.684Z,115.90
2022-11-29T22:22:43.193Z,92.32
2022-11-29T22:25:09.806Z,86.10
2022-11-29T22:27:36.802Z,84.72
2022-11-29T22:30:03.490Z,89.43
2022-11-29T22:32:29.989Z,86.32
2022-11-29T22:34:56.529Z,77.80
2022-11-29T22:37:23.079Z,77.88
2022-11-29T22:39:49.781Z,90.28
2022-11-29T22:42:16.287Z,100.88
2022-11-29T22:44:42.788Z,171.02
2022-11-29T22:47:09.312Z,79.50
2022-11-29T22:49:35.911Z,72.30
2022-11-29T22:52:02.442Z,65.65
2022-11-29T22:54:29.944Z,67.38
2022-11-29T22:56:56.404Z,56.85
2022-11-29T22:59:22.866Z,53.25
2022-11-29T23:01:49.454Z,55.22
2022-11-29T23:04:15.986Z,49.08
2022-11-29T23:06:44.686Z,55.10
2022-11-29T23:09:19.766Z,53.60
2022-11-29T23:11:50.916Z,52.30
2022-11-29T23:14:17.986Z,44.03
2022-11-29T23:16:44.545Z,45.97
2022-11-29T23:19:12.283Z,41.35
2022-11-29T23:21:40.623Z,42.40
2022-11-29T23:24:07.551Z,43.20
2022-11-29T23:26:40.812Z,42.40
2022-11-29T23:29:13.208Z,41.88
2022-11-29T23:31:39.877Z,41.70
2022-11-29T23:34:06.493Z,39.53
2022-11-29T23:36:33.759Z,39.17
2022-11-29T23:39:04.783Z,42.00
2022-11-29T23:41:31.285Z,38.50
2022-11-29T23:43:59.637Z,40.03
2022-11-29T23:46:26.350Z,32.50
2022-11-29T23:48:53.135Z,33.72
2022-11-29T23:51:20.238Z,31.95
2022-11-29T23:53:51.185Z,34.35
2022-11-29T23:56:19.592Z,30.67
2022-11-29T23:58:46.909Z,34.40
